Time;durP1;ratioP1;P1;durP2;ratioP2;P2;SDS_P1;SDS_P2;PMS_P1;PMS_P2;Temp;Humidity;BMP_temperature;BMP_pressure;BME280_temperature;BME280_humidity;BME280_pressure;Samples;Min_cycle;Max_cycle;Signal;HPM_P1;HPM_P2
2022/04/20 00:01:44;;;;;;;0.77;0.60;;;12.40;54.40;;;;;;5093479;28;20098;-62
2022/04/20 00:04:11;;;;;;;2.10;0.70;;;12.40;54.60;;;;;;5093935;28;20106;-62
2022/04/20 00:06:37;;;;;;;1.20;0.52;;;12.40;55.00;;;;;;5093552;28;20035;-62
2022/04/20 00:09:02;;;;;;;4.10;0.85;;;12.30;55.30;;;;;;5093907;28;20028;-62
2022/04/20 00:11:28;;;;;;;1.52;0.77;;;12.30;55.50;;;;;;5093943;28;20028;-62
2022/04/20 00:13:54;;;;;;;2.10;0.60;;;12.30;55.30;;;;;;5094156;28;20028;-63
2022/04/20 00:16:20;;;;;;;1.13;0.70;;;12.30;55.40;;;;;;5093492;28;20512;-62
2022/04/20 00:18:45;;;;;;;4.22;0.80;;;12.40;55.10;;;;;;5093443;28;20051;-62
2022/04/20 00:21:11;;;;;;;0.90;0.60;;;12.40;55.20;;;;;;5093468;28;20039;-67
2022/04/20 00:23:37;;;;;;;1.13;0.70;;;12.40;54.70;;;;;;5093462;28;20144;-63
2022/04/20 00:26:02;;;;;;;1.13;0.80;;;12.40;53.90;;;;;;5093312;28;20028;-62
2022/04/20 00:28:29;;;;;;;1.55;0.80;;;12.30;54.50;;;;;;5093457;28;20039;-62
2022/04/20 00:30:54;;;;;;;0.60;0.60;;;12.30;54.80;;;;;;5093644;28;20032;-62
2022/04/20 00:33:20;;;;;;;1.80;0.80;;;12.30;55.20;;;;;;5093630;28;20035;-64
2022/04/20 00:35:46;;;;;;;1.90;0.90;;;12.30;54.20;;;;;;5093182;28;20032;-62
2022/04/20 00:38:12;;;;;;;1.27;0.73;;;12.30;54.60;;;;;;5093298;28;20357;-62
2022/04/20 00:40:37;;;;;;;1.13;0.73;;;12.30;54.70;;;;;;5093008;28;20032;-63
2022/04/20 00:43:03;;;;;;;0.90;0.60;;;12.30;55.10;;;;;;5093153;28;20016;-62
2022/04/20 00:45:30;;;;;;;1.10;0.70;;;12.30;54.80;;;;;;5093046;28;20398;-62
2022/04/20 00:47:56;;;;;;;1.73;0.77;;;12.30;55.00;;;;;;5093357;28;20103;-62
2022/04/20 00:50:22;;;;;;;0.77;0.60;;;12.30;55.20;;;;;;5093046;28;20456;-62
2022/04/20 00:52:48;;;;;;;1.70;0.70;;;12.40;55.30;;;;;;5093051;28;20078;-63
2022/04/20 00:55:14;;;;;;;1.88;0.80;;;12.30;55.30;;;;;;5092563;28;20032;-62
2022/04/20 00:57:39;;;;;;;2.05;0.63;;;12.40;55.10;;;;;;5092352;28;20112;-62
2022/04/20 01:00:07;;;;;;;1.73;1.20;;;12.40;54.60;;;;;;5089803;28;20099;-63
2022/04/20 01:02:32;;;;;;;1.67;1.08;;;12.40;54.20;;;;;;5090454;28;20024;-64
2022/04/20 01:04:58;;;;;;;4.30;1.00;;;12.50;53.50;;;;;;5091610;28;20035;-63
2022/04/20 01:07:24;;;;;;;2.03;1.00;;;12.50;53.50;;;;;;5092909;28;20480;-67
2022/04/20 01:09:50;;;;;;;1.15;0.77;;;12.50;53.20;;;;;;5092837;28;20029;-66
2022/04/20 01:12:17;;;;;;;1.38;0.80;;;12.50;54.00;;;;;;5092916;28;20024;-62
2022/04/20 01:14:43;;;;;;;1.17;0.70;;;12.50;55.50;;;;;;5092761;28;20066;-63
2022/04/20 01:17:09;;;;;;;4.60;0.90;;;12.40;55.60;;;;;;5092803;28;20079;-62
2022/04/20 01:19:38;;;;;;;2.08;0.90;;;12.40;55.20;;;;;;5092769;28;20057;-62
2022/04/20 01:22:05;;;;;;;1.25;0.70;;;12.40;54.80;;;;;;5092571;28;20028;-62
2022/04/20 01:24:32;;;;;;;3.03;0.95;;;12.40;54.90;;;;;;5092887;28;20028;-62
2022/04/20 01:26:59;;;;;;;1.13;0.65;;;12.40;54.80;;;;;;5092884;28;20028;-62
2022/04/20 01:29:28;;;;;;;1.95;0.70;;;12.30;53.70;;;;;;5092310;28;20025;-61
2022/04/20 01:31:54;;;;;;;2.90;0.90;;;12.40;53.70;;;;;;5092264;28;20380;-62
2022/04/20 01:34:20;;;;;;;1.20;0.77;;;12.40;53.40;;;;;;5092602;28;20026;-62
2022/04/20 01:36:46;;;;;;;1.40;0.73;;;12.40;53.10;;;;;;5092528;28;20024;-62
2022/04/20 01:39:11;;;;;;;1.05;0.77;;;12.30;52.20;;;;;;5092866;28;20028;-62
2022/04/20 01:41:37;;;;;;;2.85;0.70;;;12.40;52.10;;;;;;5092545;28;20039;-62
2022/04/20 01:44:03;;;;;;;2.38;0.80;;;12.30;52.20;;;;;;5092358;28;20423;-62
2022/04/20 01:46:29;;;;;;;2.00;0.80;;;12.40;53.30;;;;;;5092374;28;20028;-62
2022/04/20 01:48:55;;;;;;;1.63;0.85;;;12.30;53.60;;;;;;5092337;28;20523;-62
2022/04/20 01:54:05;;;;;;;2.72;1.08;;;12.30;52.60;;;;;;5092655;28;20028;-62
2022/04/20 01:56:30;;;;;;;1.73;0.80;;;12.40;51.40;;;;;;5092388;28;20024;-62
2022/04/20 01:58:56;;;;;;;1.00;0.65;;;12.40;51.00;;;;;;5092279;28;20096;-62
2022/04/20 02:04:06;;;;;;;1.30;0.60;;;12.30;50.20;;;;;;5092227;28;20032;-62
2022/04/20 02:06:32;;;;;;;1.70;0.70;;;12.30;49.90;;;;;;5092379;28;20032;-62
2022/04/20 02:08:58;;;;;;;2.30;0.77;;;12.30;50.40;;;;;;5095117;28;20056;-63
2022/04/20 02:11:24;;;;;;;2.05;0.65;;;12.30;50.60;;;;;;5096095;28;20059;-62
2022/04/20 02:13:50;;;;;;;2.58;0.80;;;12.30;50.80;;;;;;5095840;28;20056;-62
2022/04/20 02:16:15;;;;;;;1.85;0.70;;;12.30;50.90;;;;;;5095717;28;20496;-62
2022/04/20 02:18:41;;;;;;;1.40;0.70;;;12.30;51.30;;;;;;5095967;28;20034;-62
2022/04/20 02:21:07;;;;;;;1.25;0.60;;;12.30;51.60;;;;;;5095815;28;20036;-62
2022/04/20 02:23:32;;;;;;;1.90;0.70;;;12.30;51.60;;;;;;5095664;28;20066;-62
2022/04/20 02:25:58;;;;;;;0.95;0.60;;;12.30;51.30;;;;;;5095515;28;20119;-62
2022/04/20 02:28:24;;;;;;;1.23;0.70;;;12.20;51.40;;;;;;5095489;28;20031;-63
2022/04/20 02:30:49;;;;;;;1.50;0.70;;;12.30;51.40;;;;;;5095587;28;20055;-62
2022/04/20 02:33:15;;;;;;;2.92;0.73;;;12.30;51.40;;;;;;5095422;28;20023;-62
2022/04/20 02:35:41;;;;;;;1.33;0.68;;;12.30;51.10;;;;;;5095577;28;20028;-62
2022/04/20 02:38:11;;;;;;;3.85;0.68;;;12.30;51.00;;;;;;5095787;28;20031;-62
2022/04/20 02:40:38;;;;;;;1.27;0.60;;;12.20;50.90;;;;;;5095274;28;20040;-62
2022/04/20 02:43:04;;;;;;;2.35;0.77;;;12.20;50.80;;;;;;5095306;28;20028;-63
2022/04/20 02:45:30;;;;;;;1.15;0.80;;;12.30;51.10;;;;;;5095410;28;20129;-63
2022/04/20 02:47:55;;;;;;;1.98;0.90;;;12.30;51.10;;;;;;5095285;28;20031;-63
2022/04/20 02:50:21;;;;;;;1.42;0.70;;;12.20;50.80;;;;;;5095419;28;20109;-67
2022/04/20 02:52:47;;;;;;;1.98;0.80;;;12.20;50.50;;;;;;5095466;28;20107;-62
2022/04/20 02:55:12;;;;;;;1.98;0.90;;;12.20;50.30;;;;;;5095410;28;20020;-63
2022/04/20 02:57:38;;;;;;;1.45;0.50;;;12.20;50.10;;;;;;5094994;28;20063;-62
2022/04/20 03:00:05;;;;;;;4.80;0.90;;;12.20;49.90;;;;;;5094787;28;20101;-66
2022/04/20 03:02:31;;;;;;;2.08;0.70;;;12.20;49.80;;;;;;5094922;28;20024;-62
2022/04/20 03:04:57;;;;;;;1.38;0.63;;;12.20;49.90;;;;;;5094793;28;20495;-62
2022/04/20 03:07:23;;;;;;;1.33;0.60;;;12.20;50.00;;;;;;5094966;28;20498;-62
2022/04/20 03:09:49;;;;;;;5.35;0.70;;;12.20;50.20;;;;;;5095006;28;20034;-62
2022/04/20 03:12:14;;;;;;;2.33;1.00;;;12.20;50.40;;;;;;5094843;28;20032;-63
2022/04/20 03:14:40;;;;;;;2.22;0.73;;;12.20;50.40;;;;;;5095196;28;20024;-62
2022/04/20 03:17:06;;;;;;;1.40;0.70;;;12.10;50.30;;;;;;5095056;28;20462;-62
2022/04/20 03:19:32;;;;;;;1.67;0.50;;;12.10;50.00;;;;;;5095038;28;20061;-62
2022/04/20 03:21:58;;;;;;;1.00;0.70;;;12.10;50.00;;;;;;5094547;28;20028;-63
2022/04/20 03:24:23;;;;;;;1.83;0.70;;;12.10;50.10;;;;;;5094725;28;20031;-62
2022/04/20 03:26:49;;;;;;;0.55;0.50;;;12.00;50.10;;;;;;5094456;28;20027;-63
2022/04/20 03:29:15;;;;;;;0.93;0.68;;;12.00;50.00;;;;;;5094647;28;20031;-63
2022/04/20 03:31:41;;;;;;;2.80;0.70;;;12.00;50.10;;;;;;5094449;28;20020;-63
2022/04/20 03:34:07;;;;;;;0.75;0.60;;;12.00;50.20;;;;;;5094252;28;20055;-62
2022/04/20 03:36:34;;;;;;;1.52;0.60;;;12.00;50.10;;;;;;5094498;28;20020;-62
2022/04/20 03:39:01;;;;;;;5.18;0.70;;;11.90;50.80;;;;;;5094418;28;20085;-67
2022/04/20 03:41:27;;;;;;;2.90;0.77;;;11.90;50.50;;;;;;5094539;28;20519;-62
2022/04/20 03:43:52;;;;;;;1.83;0.65;;;11.90;50.40;;;;;;5094208;28;20052;-62
2022/04/20 03:46:18;;;;;;;1.17;0.70;;;11.90;51.10;;;;;;5094182;28;20373;-63
2022/04/20 03:48:45;;;;;;;1.67;0.70;;;11.90;50.50;;;;;;5093976;28;20031;-62
2022/04/20 03:51:11;;;;;;;0.70;0.50;;;11.80;50.50;;;;;;5094503;28;20502;-62
2022/04/20 03:53:37;;;;;;;0.82;0.50;;;11.80;50.30;;;;;;5094075;28;20028;-63
2022/04/20 03:56:02;;;;;;;3.05;0.70;;;11.80;50.60;;;;;;5094199;28;20465;-62
2022/04/20 03:58:28;;;;;;;0.80;0.60;;;11.80;50.60;;;;;;5094097;28;20020;-62
2022/04/20 04:00:54;;;;;;;3.63;1.10;;;11.90;50.80;;;;;;5093821;28;20048;-63
2022/04/20 04:03:19;;;;;;;0.82;0.68;;;11.90;50.90;;;;;;5093744;28;20035;-62
2022/04/20 04:05:45;;;;;;;1.20;0.77;;;11.90;50.70;;;;;;5093987;28;20060;-62
2022/04/20 04:08:11;;;;;;;0.70;0.50;;;11.80;50.50;;;;;;5093936;28;20053;-62
2022/04/20 04:10:37;;;;;;;1.08;0.65;;;11.80;50.40;;;;;;5093993;28;20032;-62
2022/04/20 04:13:02;;;;;;;0.73;0.60;;;11.80;50.60;;;;;;5093655;28;20025;-62
2022/04/20 04:15:28;;;;;;;0.73;0.70;;;11.80;50.70;;;;;;5093815;28;20031;-61
2022/04/20 04:17:58;;;;;;;1.35;0.60;;;11.80;51.10;;;;;;5093758;28;20093;-62
2022/04/20 04:20:27;;;;;;;1.50;0.60;;;11.70;50.60;;;;;;5093544;28;20046;-62
2022/04/20 04:22:53;;;;;;;0.88;0.60;;;11.70;50.40;;;;;;5093953;28;20024;-62
2022/04/20 04:25:19;;;;;;;2.92;0.80;;;11.70;50.20;;;;;;5093638;28;20392;-62
2022/04/20 04:27:45;;;;;;;1.45;0.70;;;11.60;50.50;;;;;;5093383;28;20035;-62
2022/04/20 04:30:12;;;;;;;1.20;0.70;;;11.70;50.90;;;;;;5093169;28;20476;-63
2022/04/20 04:32:38;;;;;;;1.33;0.70;;;11.70;51.30;;;;;;5093508;28;20028;-62
2022/04/20 04:35:04;;;;;;;5.10;0.80;;;11.70;51.60;;;;;;5093575;28;20115;-62
2022/04/20 04:37:30;;;;;;;1.70;0.60;;;11.60;51.70;;;;;;5092636;28;20082;-62
2022/04/20 04:39:56;;;;;;;1.08;0.55;;;11.60;51.30;;;;;;5093128;28;20472;-62
2022/04/20 04:42:22;;;;;;;4.43;0.80;;;11.60;51.10;;;;;;5093467;28;20052;-62
2022/04/20 04:44:48;;;;;;;2.58;0.65;;;11.60;51.40;;;;;;5093277;28;20449;-62
2022/04/20 04:49:58;;;;;;;1.52;0.63;;;11.50;51.60;;;;;;5093881;28;20054;-62
2022/04/20 04:52:24;;;;;;;4.40;0.80;;;11.40;51.90;;;;;;5093301;28;20034;-63
2022/04/20 04:54:50;;;;;;;1.23;0.70;;;11.50;51.60;;;;;;5093118;28;20036;-63
2022/04/20 04:57:15;;;;;;;2.00;0.90;;;11.40;51.30;;;;;;5092937;28;20066;-61
2022/04/20 04:59:42;;;;;;;2.22;0.73;;;11.40;51.70;;;;;;5092894;28;20044;-62
2022/04/20 05:02:09;;;;;;;1.27;0.70;;;11.40;52.00;;;;;;5092926;28;20028;-62
2022/04/20 05:04:36;;;;;;;2.15;0.88;;;11.40;52.10;;;;;;5092901;28;20031;-62
2022/04/20 05:07:03;;;;;;;2.20;1.10;;;11.40;52.20;;;;;;5092962;28;20032;-62
2022/04/20 05:09:29;;;;;;;1.20;0.85;;;11.40;52.00;;;;;;5093139;28;20091;-62
2022/04/20 05:11:54;;;;;;;1.92;0.82;;;11.40;51.90;;;;;;5092935;28;20563;-62
2022/04/20 05:14:20;;;;;;;1.05;0.75;;;11.40;51.60;;;;;;5092812;28;20145;-62
2022/04/20 05:16:46;;;;;;;1.90;0.88;;;11.40;51.40;;;;;;5092893;28;20337;-62
2022/04/20 05:19:12;;;;;;;1.23;0.70;;;11.40;52.10;;;;;;5092916;28;20031;-66
2022/04/20 05:21:38;;;;;;;0.93;0.70;;;11.40;51.40;;;;;;5092807;28;20042;-63
2022/04/20 05:24:04;;;;;;;1.52;0.80;;;11.40;51.40;;;;;;5092867;28;20035;-62
2022/04/20 05:26:30;;;;;;;1.10;0.90;;;11.40;51.60;;;;;;5093155;28;20023;-62
2022/04/20 05:28:56;;;;;;;1.75;0.90;;;11.40;51.60;;;;;;5092684;28;20801;-63
2022/04/20 05:31:22;;;;;;;1.52;0.70;;;11.40;51.90;;;;;;5092612;28;20028;-62
2022/04/20 05:33:48;;;;;;;1.83;1.15;;;11.40;51.90;;;;;;5092626;28;20020;-62
2022/04/20 05:36:13;;;;;;;3.28;0.73;;;11.40;51.60;;;;;;5092774;28;20472;-62
2022/04/20 05:41:41;;;;;;;1.98;1.35;;;11.50;51.00;;;;;;5092812;28;20051;-67
2022/04/20 05:44:11;;;;;;;1.48;0.80;;;11.50;50.90;;;;;;5096352;28;20020;-62
2022/04/20 05:46:39;;;;;;;2.40;0.85;;;11.40;50.70;;;;;;5096755;28;20050;-61
2022/04/20 05:49:05;;;;;;;2.35;0.90;;;11.50;50.60;;;;;;5096526;28;20028;-62
2022/04/20 05:51:31;;;;;;;1.65;0.70;;;11.50;50.70;;;;;;5096925;28;20035;-62
2022/04/20 05:53:57;;;;;;;3.00;0.80;;;11.50;50.70;;;;;;5096255;28;20024;-67
2022/04/20 05:56:23;;;;;;;1.08;0.80;;;11.50;50.80;;;;;;5096275;28;20032;-62
2022/04/20 05:58:52;;;;;;;1.38;0.80;;;11.50;50.80;;;;;;5096514;28;20016;-62
2022/04/20 06:01:18;;;;;;;3.28;0.90;;;11.50;51.00;;;;;;5096005;28;20039;-62
2022/04/20 06:03:45;;;;;;;2.10;1.00;;;11.50;50.80;;;;;;5096240;28;20028;-62
2022/04/20 06:06:11;;;;;;;3.22;1.00;;;11.60;51.10;;;;;;5096272;28;20468;-62
2022/04/20 06:08:37;;;;;;;3.40;0.80;;;11.60;51.10;;;;;;5096494;28;20065;-66
2022/04/20 06:11:03;;;;;;;6.55;1.35;;;11.60;50.90;;;;;;5094742;28;20048;-62
2022/04/20 06:13:29;;;;;;;1.38;0.90;;;11.60;50.50;;;;;;5094580;28;20024;-62
2022/04/20 06:15:55;;;;;;;1.02;0.80;;;11.70;51.00;;;;;;5094228;28;20028;-62
2022/04/20 06:18:21;;;;;;;2.22;0.80;;;11.70;50.30;;;;;;5094435;28;20055;-61
2022/04/20 06:20:47;;;;;;;1.23;0.90;;;11.70;50.70;;;;;;5095443;28;20040;-62
2022/04/20 06:23:12;;;;;;;0.95;0.60;;;11.70;50.20;;;;;;5095327;28;20107;-61
2022/04/20 06:25:38;;;;;;;3.20;0.70;;;11.70;50.40;;;;;;5095308;28;20030;-64
2022/04/20 06:28:05;;;;;;;3.05;0.90;;;11.80;49.70;;;;;;5036479;28;20071;-61
2022/04/20 06:30:30;;;;;;;2.13;1.05;;;11.80;49.80;;;;;;5055178;28;20108;-61
2022/04/20 06:32:56;;;;;;;0.68;0.60;;;11.90;49.40;;;;;;5055185;28;20709;-62
2022/04/20 06:35:22;;;;;;;0.70;0.70;;;11.90;49.50;;;;;;5054993;28;20029;-62
2022/04/20 06:37:48;;;;;;;0.95;0.80;;;11.90;49.90;;;;;;5053970;28;20029;-63
2022/04/20 06:40:14;;;;;;;1.65;1.00;;;11.90;49.50;;;;;;5052880;28;20044;-63
2022/04/20 06:42:40;;;;;;;4.07;1.40;;;12.00;49.00;;;;;;5053497;28;20433;-62
2022/04/20 06:45:07;;;;;;;3.55;0.90;;;12.00;49.30;;;;;;5053684;28;20056;-62
2022/04/20 06:47:33;;;;;;;1.35;0.70;;;12.10;49.00;;;;;;5054995;28;20354;-63
2022/04/20 06:49:59;;;;;;;2.30;1.00;;;12.10;48.50;;;;;;5054862;28;20365;-63
2022/04/20 07:00:39;;;;;;;5.97;1.00;;;12.20;47.20;;;;;;5053943;28;20114;-63
2022/04/20 07:03:09;;;;;;;1.20;0.80;;;12.30;47.20;;;;;;5053789;28;20028;-62
2022/04/20 07:05:35;;;;;;;1.38;0.73;;;12.30;46.90;;;;;;5054453;28;20025;-62
2022/04/20 07:08:01;;;;;;;1.42;0.95;;;12.40;46.20;;;;;;5053496;28;20066;-62
2022/04/20 07:10:28;;;;;;;1.35;0.70;;;12.40;45.60;;;;;;5054740;28;20029;-64
2022/04/20 07:12:54;;;;;;;1.17;0.70;;;12.40;46.00;;;;;;5054637;28;20047;-62
2022/04/20 07:15:20;;;;;;;1.35;0.90;;;12.50;46.40;;;;;;5054757;28;20044;-62
2022/04/20 07:17:46;;;;;;;2.30;0.75;;;12.50;45.50;;;;;;5054808;28;20087;-63
2022/04/20 07:20:17;;;;;;;1.20;0.80;;;12.60;46.10;;;;;;5054561;28;20532;-62
2022/04/20 07:22:47;;;;;;;1.42;0.80;;;12.60;45.10;;;;;;5054261;28;20029;-62
2022/04/20 07:25:14;;;;;;;1.23;0.80;;;12.60;45.00;;;;;;5054594;28;20028;-63
2022/04/20 07:27:40;;;;;;;3.13;0.98;;;12.70;45.50;;;;;;5054393;28;20043;-62
2022/04/20 07:30:06;;;;;;;2.65;0.80;;;12.80;44.00;;;;;;5051886;28;20104;-62
2022/04/20 07:32:32;;;;;;;4.18;1.20;;;12.80;43.70;;;;;;5053171;28;20521;-62
2022/04/20 07:34:58;;;;;;;1.60;0.93;;;12.80;43.60;;;;;;5052355;28;20105;-63
2022/04/20 07:37:23;;;;;;;2.17;1.20;;;12.90;44.00;;;;;;5053146;28;20036;-63
2022/04/20 07:39:49;;;;;;;1.65;0.80;;;12.90;43.00;;;;;;5053816;28;20040;-63
2022/04/20 07:42:14;;;;;;;2.97;0.80;;;12.90;43.30;;;;;;5054285;28;20032;-66
2022/04/20 07:44:40;;;;;;;1.67;0.80;;;12.90;44.00;;;;;;5054230;28;20036;-63
2022/04/20 07:47:06;;;;;;;1.70;0.93;;;12.90;43.40;;;;;;5054223;28;20049;-63
2022/04/20 07:52:19;;;;;;;0.98;0.80;;;13.00;41.70;;;;;;5054164;28;20548;-62
2022/04/20 07:54:45;;;;;;;0.90;0.68;;;13.10;41.40;;;;;;5053739;28;20029;-62
2022/04/20 07:57:14;;;;;;;0.80;0.70;;;13.10;41.80;;;;;;5053876;28;20025;-63
2022/04/20 07:59:40;;;;;;;1.55;0.82;;;13.10;43.10;;;;;;5053421;28;20025;-63
2022/04/20 08:02:07;;;;;;;1.13;0.73;;;13.10;42.50;;;;;;5053470;28;20396;-61
2022/04/20 08:04:32;;;;;;;0.73;0.70;;;13.20;41.20;;;;;;5053237;28;20036;-61
2022/04/20 08:06:58;;;;;;;1.20;0.95;;;13.20;40.90;;;;;;5052483;28;20029;-62
2022/04/20 08:09:24;;;;;;;2.00;0.70;;;13.30;41.10;;;;;;5053346;28;20112;-62
2022/04/20 08:11:50;;;;;;;1.40;0.82;;;13.30;41.20;;;;;;5053388;28;20096;-62
2022/04/20 08:14:16;;;;;;;1.25;0.88;;;13.30;41.40;;;;;;5053199;28;20051;-62
2022/04/20 08:16:44;;;;;;;5.05;1.02;;;13.40;41.60;;;;;;5053035;28;20481;-62
2022/04/20 08:19:10;;;;;;;1.55;0.90;;;13.40;41.20;;;;;;5052843;28;20389;-62
2022/04/20 08:21:36;;;;;;;1.85;0.75;;;13.40;40.20;;;;;;5052796;28;20068;-62
2022/04/20 08:24:02;;;;;;;1.23;0.80;;;13.50;41.40;;;;;;5052974;28;20082;-65
2022/04/20 08:26:28;;;;;;;2.05;0.80;;;13.50;41.30;;;;;;5052908;28;20025;-62
2022/04/20 08:28:53;;;;;;;2.40;1.00;;;13.60;40.90;;;;;;5052926;28;20399;-62
2022/04/20 08:31:19;;;;;;;4.60;0.80;;;13.60;40.80;;;;;;5053068;28;20036;-62
2022/04/20 08:33:45;;;;;;;1.15;0.85;;;13.70;40.50;;;;;;5053308;28;20435;-62
2022/04/20 08:36:12;;;;;;;1.08;0.70;;;13.70;40.80;;;;;;5052891;28;20078;-62
2022/04/20 08:38:41;;;;;;;4.82;0.90;;;13.70;41.60;;;;;;5053323;28;20462;-61
2022/04/20 08:41:10;;;;;;;2.50;0.90;;;13.80;42.00;;;;;;5053300;28;20037;-65
2022/04/20 08:43:41;;;;;;;17.55;1.73;;;13.80;41.20;;;;;;5053105;28;20048;-63
2022/04/20 08:46:10;;;;;;;2.10;0.70;;;13.90;41.30;;;;;;5053161;28;20025;-63
2022/04/20 08:48:36;;;;;;;4.53;0.95;;;13.90;40.70;;;;;;5052700;28;20037;-62
2022/04/20 08:51:04;;;;;;;1.20;0.77;;;14.00;40.80;;;;;;5052852;28;20096;-62
2022/04/20 08:53:30;;;;;;;2.63;0.90;;;14.00;40.60;;;;;;5052672;28;20434;-62
2022/04/20 08:58:43;;;;;;;1.38;0.90;;;14.10;39.90;;;;;;5052374;28;20417;-62
2022/04/20 09:01:12;;;;;;;1.63;0.95;;;14.10;39.90;;;;;;5051000;28;20087;-61
2022/04/20 09:03:38;;;;;;;0.82;0.75;;;14.10;40.50;;;;;;5053074;28;20020;-62
2022/04/20 09:06:05;;;;;;;0.90;0.70;;;14.10;40.30;;;;;;5052902;28;20108;-61
2022/04/20 09:08:31;;;;;;;2.47;0.90;;;14.20;40.60;;;;;;5052787;28;20017;-62
2022/04/20 09:11:00;;;;;;;1.45;0.90;;;14.20;41.30;;;;;;5052776;28;20121;-62
2022/04/20 09:13:35;;;;;;;10.95;1.00;;;14.30;41.20;;;;;;5052769;28;20024;-62
2022/04/20 09:16:08;;;;;;;1.38;0.82;;;14.30;41.40;;;;;;5053133;28;20464;-64
2022/04/20 09:18:35;;;;;;;2.00;0.80;;;14.30;40.60;;;;;;5056227;28;20033;-63
2022/04/20 09:21:09;;;;;;;0.70;0.70;;;14.30;39.90;;;;;;5055827;28;20090;-63
2022/04/20 09:23:35;;;;;;;1.05;0.80;;;14.40;40.50;;;;;;5055437;28;20021;-63
2022/04/20 09:26:08;;;;;;;18.30;1.77;;;14.40;41.30;;;;;;5056102;28;20401;-64
2022/04/20 09:28:36;;;;;;;4.22;0.90;;;14.40;42.60;;;;;;5055713;28;20501;-63
2022/04/20 09:31:03;;;;;;;7.35;1.20;;;14.50;41.60;;;;;;5056220;28;20033;-63
2022/04/20 09:33:46;;;;;;;1.52;1.10;;;14.60;41.30;;;;;;5056549;28;20366;-63
2022/04/20 09:36:13;;;;;;;;;;;14.60;41.10;;;;;;5056964;28;20425;-63
2022/04/20 09:38:41;;;;;;;1.02;0.90;;;14.70;40.10;;;;;;5056282;28;19905;-63
2022/04/20 09:41:09;;;;;;;2.60;1.20;;;14.70;40.70;;;;;;5056241;28;20065;-63
2022/04/20 09:43:35;;;;;;;4.65;1.00;;;14.80;40.30;;;;;;5056506;28;20021;-64
2022/04/20 09:48:50;;;;;;;3.83;1.00;;;14.80;39.90;;;;;;5056637;28;20424;-63
2022/04/20 09:49:11;;;;;;;1.13;0.90;;;14.90;40.70;;;;;;5056610;28;20420;-63
2022/04/20 09:51:41;;;;;;;1.15;0.75;;;14.90;40.10;;;;;;5055981;28;20037;-63
2022/04/20 09:54:29;;;;;;;0.98;0.90;;;15.00;39.60;;;;;;5056301;28;20411;-63
2022/04/20 09:57:13;;;;;;;2.83;0.88;;;15.00;40.00;;;;;;5056393;28;20082;-63
2022/04/20 10:00:11;;;;;;;1.65;1.00;;;15.10;40.60;;;;;;5056319;28;20032;-63
2022/04/20 10:02:53;;;;;;;2.38;1.00;;;15.10;41.20;;;;;;5056396;28;20052;-63
2022/04/20 10:05:22;;;;;;;1.98;1.17;;;15.20;40.60;;;;;;5055965;28;20155;-63
2022/04/20 10:07:48;;;;;;;2.00;1.20;;;15.30;40.10;;;;;;5056599;28;20048;-63
2022/04/20 10:10:14;;;;;;;1.10;1.00;;;15.30;39.70;;;;;;5056329;28;20083;-63
2022/04/20 10:12:41;;;;;;;1.38;1.00;;;15.40;39.50;;;;;;5056064;28;20029;-63
2022/04/20 10:17:57;;;;;;;1.30;1.00;;;15.40;39.80;;;;;;5056038;28;20036;-63
2022/04/20 10:20:26;;;;;;;1.92;1.02;;;15.40;40.00;;;;;;5055854;28;20389;-63
2022/04/20 10:22:58;;;;;;;1.88;1.00;;;15.50;39.90;;;;;;5056201;28;20122;-63
2022/04/20 10:25:24;;;;;;;1.70;1.10;;;15.60;39.00;;;;;;5056027;28;20400;-63
2022/04/20 10:28:00;;;;;;;2.55;1.05;;;15.60;38.90;;;;;;5055296;28;20025;-63
2022/04/20 10:30:45;;;;;;;1.70;0.90;;;15.60;38.80;;;;;;5055837;28;20013;-63
2022/04/20 10:33:23;;;;;;;2.33;0.80;;;15.70;40.00;;;;;;5056179;28;20029;-63
2022/04/20 10:35:59;;;;;;;1.30;0.90;;;15.70;40.90;;;;;;5055961;28;20025;-63
2022/04/20 10:38:28;;;;;;;2.53;0.93;;;15.80;39.70;;;;;;5055821;28;20032;-63
2022/04/20 10:41:13;;;;;;;4.75;0.80;;;15.90;39.30;;;;;;5055219;28;20033;-63
2022/04/20 10:43:43;;;;;;;4.28;0.90;;;15.90;40.70;;;;;;5054872;28;20025;-63
2022/04/20 10:46:12;;;;;;;1.85;1.00;;;16.00;38.80;;;;;;5055083;28;20474;-62
2022/04/20 10:48:56;;;;;;;2.22;1.23;;;16.10;39.30;;;;;;5054565;28;20517;-63
2022/04/20 10:51:34;;;;;;;2.08;0.98;;;16.10;39.30;;;;;;5055121;28;20028;-62
2022/04/20 10:54:20;;;;;;;4.72;1.10;;;16.20;38.70;;;;;;5054167;28;20104;-63
2022/04/20 10:57:12;;;;;;;1.35;1.00;;;16.20;39.50;;;;;;5055239;28;20036;-63
2022/04/20 10:59:42;;;;;;;2.35;1.02;;;16.30;38.40;;;;;;5049908;28;20076;-63
2022/04/20 11:02:10;;;;;;;2.00;0.90;;;16.30;38.50;;;;;;5055004;28;20086;-63
2022/04/20 11:04:46;;;;;;;2.08;1.42;;;16.30;38.60;;;;;;5054621;28;20497;-63
2022/04/20 11:07:19;;;;;;;1.00;0.90;;;16.30;38.10;;;;;;5054779;28;20029;-63
2022/04/20 11:09:45;;;;;;;2.63;1.40;;;16.30;39.00;;;;;;5055298;28;20072;-63
2022/04/20 11:21:06;;;;;;;1.17;0.90;;;16.60;38.10;;;;;;5054859;28;20550;-63
2022/04/20 11:23:59;;;;;;;3.28;1.13;;;16.70;38.30;;;;;;5055010;28;20379;-63
2022/04/20 11:26:28;;;;;;;2.08;1.10;;;16.70;37.10;;;;;;5054338;28;20444;-64
2022/04/20 11:28:55;;;;;;;1.30;1.00;;;16.80;38.10;;;;;;5054644;28;20123;-63
2022/04/20 11:31:22;;;;;;;2.65;1.13;;;16.80;37.30;;;;;;5054660;28;20462;-64
2022/04/20 11:33:49;;;;;;;1.02;0.70;;;16.90;38.10;;;;;;5054418;28;20021;-63
2022/04/20 11:36:15;;;;;;;1.10;0.65;;;17.00;37.80;;;;;;5054388;28;20060;-63
2022/04/20 11:38:43;;;;;;;10.98;1.42;;;17.10;36.30;;;;;;5054024;28;20036;-63
2022/04/20 11:41:12;;;;;;;4.22;1.42;;;17.10;36.90;;;;;;5053186;28;20048;-63
2022/04/20 11:43:40;;;;;;;3.08;1.13;;;17.10;38.10;;;;;;5054227;28;20159;-63
2022/04/20 11:46:07;;;;;;;2.10;1.00;;;17.10;37.40;;;;;;5054372;28;20028;-63
2022/04/20 11:48:35;;;;;;;2.60;0.98;;;17.20;37.70;;;;;;5054189;28;20374;-63
2022/04/20 11:51:03;;;;;;;3.83;0.73;;;17.30;37.30;;;;;;5054125;28;20389;-63
2022/04/20 11:53:41;;;;;;;2.67;1.15;;;17.50;37.40;;;;;;5053918;28;20547;-63
2022/04/20 11:56:09;;;;;;;2.88;1.10;;;17.50;36.60;;;;;;5054125;28;20024;-63
2022/04/20 11:58:37;;;;;;;1.77;1.10;;;17.70;36.90;;;;;;5054018;28;20467;-64
2022/04/20 12:01:10;;;;;;;2.67;1.30;;;17.70;35.60;;;;;;5053891;28;20080;-63
2022/04/20 12:03:37;;;;;;;1.55;1.00;;;17.70;35.70;;;;;;5053388;28;20115;-63
2022/04/20 12:06:08;;;;;;;1.95;0.90;;;17.70;34.90;;;;;;5052223;28;20024;-63
2022/04/20 12:08:36;;;;;;;1.42;0.82;;;17.70;35.70;;;;;;5033655;28;20351;-63
2022/04/20 12:11:09;;;;;;;2.03;1.00;;;17.70;35.70;;;;;;5032955;28;20025;-63
2022/04/20 12:13:36;;;;;;;1.52;0.95;;;17.80;37.00;;;;;;5033446;28;20056;-65
2022/04/20 12:16:07;;;;;;;2.03;0.80;;;17.90;35.80;;;;;;5033590;28;20057;-64
2022/04/20 12:18:36;;;;;;;1.95;1.00;;;17.90;34.60;;;;;;5033731;28;20040;-63
2022/04/20 12:21:07;;;;;;;2.33;1.00;;;17.90;34.70;;;;;;5033440;28;20084;-63
2022/04/20 12:23:37;;;;;;;2.05;1.05;;;17.80;36.30;;;;;;5033730;28;20383;-64
2022/04/20 12:26:05;;;;;;;3.78;1.00;;;17.80;35.80;;;;;;5033716;28;20516;-63
2022/04/20 12:28:44;;;;;;;1.50;1.05;;;17.80;36.10;;;;;;5033378;28;20532;-63
2022/04/20 12:31:12;;;;;;;1.10;0.90;;;17.80;36.30;;;;;;5033528;28;20029;-63
2022/04/20 12:33:41;;;;;;;1.13;0.90;;;17.80;35.60;;;;;;5033725;28;20033;-63
2022/04/20 12:36:11;;;;;;;3.00;0.90;;;17.90;35.60;;;;;;5033684;28;20029;-64
2022/04/20 12:38:47;;;;;;;1.27;0.80;;;17.90;35.00;;;;;;5033353;28;20056;-66
2022/04/20 12:41:41;;;;;;;1.67;0.70;;;17.90;35.20;;;;;;5033170;28;20069;-64
2022/04/20 12:44:34;;;;;;;19.40;1.23;;;17.90;35.10;;;;;;5033637;28;20017;-66
2022/04/20 12:47:20;;;;;;;1.65;1.10;;;17.90;35.60;;;;;;5033287;28;20386;-65
2022/04/20 12:49:52;;;;;;;1.48;0.65;;;18.00;37.30;;;;;;5025707;28;20490;-65
2022/04/20 12:52:19;;;;;;;;;;;18.00;36.50;;;;;;5033351;28;20104;-64
2022/04/20 12:54:57;;;;;;;3.22;0.63;;;18.10;36.00;;;;;;5033117;28;20265;-65
2022/04/20 13:03:03;;;;;;;2.00;0.98;;;18.10;35.80;;;;;;5029602;28;21336;-65
2022/04/20 13:05:30;;;;;;;3.88;0.73;;;18.10;34.80;;;;;;5032622;28;20030;-65
2022/04/20 13:07:57;;;;;;;1.95;1.08;;;18.20;35.20;;;;;;5031775;28;20084;-65
2022/04/20 13:10:23;;;;;;;1.98;0.85;;;18.30;34.60;;;;;;5031844;28;20395;-65
2022/04/20 13:12:52;;;;;;;1.17;0.75;;;18.40;33.90;;;;;;5032841;28;20025;-64
2022/04/20 13:15:18;;;;;;;5.97;0.60;;;18.60;32.70;;;;;;5032943;28;20118;-65
2022/04/20 13:17:45;;;;;;;1.30;0.88;;;18.60;33.00;;;;;;5032914;28;20036;-65
2022/04/20 13:20:11;;;;;;;16.63;1.27;;;18.80;33.50;;;;;;5032976;28;20076;-65
2022/04/20 13:22:37;;;;;;;1.40;0.70;;;18.90;33.90;;;;;;5032438;28;20045;-65
2022/04/20 13:27:54;;;;;;;1.20;0.90;;;19.10;33.80;;;;;;5032595;28;20099;-65
2022/04/20 13:30:20;;;;;;;3.53;0.95;;;19.20;34.40;;;;;;5031163;28;20025;-64
2022/04/20 13:32:46;;;;;;;1.27;0.77;;;19.40;33.40;;;;;;5032552;28;20025;-65
2022/04/20 13:35:11;;;;;;;3.15;0.90;;;19.40;32.10;;;;;;5032690;28;20463;-64
2022/04/20 13:37:37;;;;;;;1.48;0.60;;;19.40;32.00;;;;;;5031820;28;20473;-66